sensor_id;sensor_type;location;lat;lon;timestamp;temperature;humidity
70166;SHT30;57541;47.408;18.822;2023-06-14T00:00:09;11.95;94.77
70166;SHT30;57541;47.408;18.822;2023-06-14T00:00:40;11.93;95.00
70166;SHT30;57541;47.408;18.822;2023-06-14T00:01:14;12.02;94.67
70166;SHT30;57541;47.408;18.822;2023-06-14T00:01:46;12.17;93.87
70166;SHT30;57541;47.408;18.822;2023-06-14T00:02:18;12.14;94.56
70166;SHT30;57541;47.408;18.822;2023-06-14T00:02:50;12.24;93.69
70166;SHT30;57541;47.408;18.822;2023-06-14T00:03:22;12.17;94.62
70166;SHT30;57541;47.408;18.822;2023-06-14T00:03:56;12.17;94.87
70166;SHT30;57541;47.408;18.822;2023-06-14T00:04:28;12.25;94.07
70166;SHT30;57541;47.408;18.822;2023-06-14T00:05:00;12.08;94.59
70166;SHT30;57541;47.408;18.822;2023-06-14T00:05:32;12.05;94.61
70166;SHT30;57541;47.408;18.822;2023-06-14T00:06:04;12.08;94.31
70166;SHT30;57541;47.408;18.822;2023-06-14T00:06:36;12.08;94.43
70166;SHT30;57541;47.408;18.822;2023-06-14T00:07:08;11.94;94.57
70166;SHT30;57541;47.408;18.822;2023-06-14T00:07:42;11.98;94.51
70166;SHT30;57541;47.408;18.822;2023-06-14T00:08:15;11.86;94.64
70166;SHT30;57541;47.408;18.822;2023-06-14T00:08:47;11.87;95.00
70166;SHT30;57541;47.408;18.822;2023-06-14T00:09:18;11.87;94.92
70166;SHT30;57541;47.408;18.822;2023-06-14T00:09:50;11.86;94.80
70166;SHT30;57541;47.408;18.822;2023-06-14T00:10:22;11.87;94.81
70166;SHT30;57541;47.408;18.822;2023-06-14T00:10:53;11.84;94.61
70166;SHT30;57541;47.408;18.822;2023-06-14T00:11:25;11.76;94.65
70166;SHT30;57541;47.408;18.822;2023-06-14T00:11:58;11.83;94.69
70166;SHT30;57541;47.408;18.822;2023-06-14T00:12:30;11.76;94.76
70166;SHT30;57541;47.408;18.822;2023-06-14T00:13:03;11.77;95.16
70166;SHT30;57541;47.408;18.822;2023-06-14T00:13:35;11.63;95.68
70166;SHT30;57541;47.408;18.822;2023-06-14T00:14:07;11.65;95.49
70166;SHT30;57541;47.408;18.822;2023-06-14T00:14:39;11.69;95.54
70166;SHT30;57541;47.408;18.822;2023-06-14T00:15:11;11.67;95.35
70166;SHT30;57541;47.408;18.822;2023-06-14T00:15:43;11.74;95.28
70166;SHT30;57541;47.408;18.822;2023-06-14T00:16:14;11.79;95.14
70166;SHT30;57541;47.408;18.822;2023-06-14T00:16:48;11.81;95.09
70166;SHT30;57541;47.408;18.822;2023-06-14T00:17:20;11.91;94.79
70166;SHT30;57541;47.408;18.822;2023-06-14T00:17:52;11.88;95.07
70166;SHT30;57541;47.408;18.822;2023-06-14T00:18:24;11.91;94.94
70166;SHT30;57541;47.408;18.822;2023-06-14T00:18:56;12.02;94.67
70166;SHT30;57541;47.408;18.822;2023-06-14T00:19:28;12.07;94.74
70166;SHT30;57541;47.408;18.822;2023-06-14T00:20:03;12.11;94.90
70166;SHT30;57541;47.408;18.822;2023-06-14T00:20:38;12.13;94.88
70166;SHT30;57541;47.408;18.822;2023-06-14T00:21:10;12.16;94.99
70166;SHT30;57541;47.408;18.822;2023-06-14T00:21:43;12.22;95.10
70166;SHT30;57541;47.408;18.822;2023-06-14T00:22:15;12.18;94.63
70166;SHT30;57541;47.408;18.822;2023-06-14T00:22:47;12.18;94.73
70166;SHT30;57541;47.408;18.822;2023-06-14T00:23:19;12.21;94.83
70166;SHT30;57541;47.408;18.822;2023-06-14T00:23:51;12.18;95.01
70166;SHT30;57541;47.408;18.822;2023-06-14T00:24:23;12.18;94.83
70166;SHT30;57541;47.408;18.822;2023-06-14T00:24:54;12.17;94.70
70166;SHT30;57541;47.408;18.822;2023-06-14T00:25:27;12.25;94.25
70166;SHT30;57541;47.408;18.822;2023-06-14T00:26:00;12.34;93.98
70166;SHT30;57541;47.408;18.822;2023-06-14T00:26:32;12.37;93.78
70166;SHT30;57541;47.408;18.822;2023-06-14T00:27:04;12.29;94.19
70166;SHT30;57541;47.408;18.822;2023-06-14T00:27:36;12.35;94.15
70166;SHT30;57541;47.408;18.822;2023-06-14T00:28:08;12.38;94.56
70166;SHT30;57541;47.408;18.822;2023-06-14T00:28:40;12.41;93.89
70166;SHT30;57541;47.408;18.822;2023-06-14T00:29:12;12.39;93.93
70166;SHT30;57541;47.408;18.822;2023-06-14T00:29:44;12.39;94.21
70166;SHT30;57541;47.408;18.822;2023-06-14T00:30:15;12.45;93.87
70166;SHT30;57541;47.408;18.822;2023-06-14T00:30:47;12.48;93.93
70166;SHT30;57541;47.408;18.822;2023-06-14T00:31:19;12.50;93.73
70166;SHT30;57541;47.408;18.822;2023-06-14T00:31:51;12.55;93.62
70166;SHT30;57541;47.408;18.822;2023-06-14T00:32:23;12.58;93.26
70166;SHT30;57541;47.408;18.822;2023-06-14T00:32:57;12.59;93.15
70166;SHT30;57541;47.408;18.822;2023-06-14T00:33:29;12.58;93.71
70166;SHT30;57541;47.408;18.822;2023-06-14T00:34:01;12.59;94.08
70166;SHT30;57541;47.408;18.822;2023-06-14T00:34:33;12.59;94.01
70166;SHT30;57541;47.408;18.822;2023-06-14T00:35:05;12.60;93.88
70166;SHT30;57541;47.408;18.822;2023-06-14T00:35:39;12.66;93.27
70166;SHT30;57541;47.408;18.822;2023-06-14T00:36:11;12.70;93.08
70166;SHT30;57541;47.408;18.822;2023-06-14T00:36:43;12.72;93.31
70166;SHT30;57541;47.408;18.822;2023-06-14T00:37:14;12.72;93.62
70166;SHT30;57541;47.408;18.822;2023-06-14T00:37:46;12.77;93.31
70166;SHT30;57541;47.408;18.822;2023-06-14T00:38:18;12.80;92.87
70166;SHT30;57541;47.408;18.822;2023-06-14T00:38:50;12.86;92.69
70166;SHT30;57541;47.408;18.822;2023-06-14T00:39:21;12.89;92.50
70166;SHT30;57541;47.408;18.822;2023-06-14T00:39:53;12.90;92.64
70166;SHT30;57541;47.408;18.822;2023-06-14T00:40:25;12.96;92.47
70166;SHT30;57541;47.408;18.822;2023-06-14T00:40:56;12.96;92.30
70166;SHT30;57541;47.408;18.822;2023-06-14T00:41:28;12.99;92.20
70166;SHT30;57541;47.408;18.822;2023-06-14T00:42:00;13.02;92.28
70166;SHT30;57541;47.408;18.822;2023-06-14T00:42:32;13.07;92.24
70166;SHT30;57541;47.408;18.822;2023-06-14T00:43:03;13.06;92.23
70166;SHT30;57541;47.408;18.822;2023-06-14T00:43:35;13.07;92.17
70166;SHT30;57541;47.408;18.822;2023-06-14T00:44:07;13.11;92.01
70166;SHT30;57541;47.408;18.822;2023-06-14T00:44:39;13.13;92.05
70166;SHT30;57541;47.408;18.822;2023-06-14T00:45:10;13.13;92.03
70166;SHT30;57541;47.408;18.822;2023-06-14T00:45:42;13.16;92.00
70166;SHT30;57541;47.408;18.822;2023-06-14T00:46:14;13.20;91.74
70166;SHT30;57541;47.408;18.822;2023-06-14T00:46:46;13.24;91.65
70166;SHT30;57541;47.408;18.822;2023-06-14T00:47:18;13.26;91.56
70166;SHT30;57541;47.408;18.822;2023-06-14T00:47:50;13.27;91.58
70166;SHT30;57541;47.408;18.822;2023-06-14T00:48:24;13.31;91.90
70166;SHT30;57541;47.408;18.822;2023-06-14T00:48:58;13.40;91.52
70166;SHT30;57541;47.408;18.822;2023-06-14T00:49:31;13.41;91.40
70166;SHT30;57541;47.408;18.822;2023-06-14T00:50:03;13.44;91.50
70166;SHT30;57541;47.408;18.822;2023-06-14T00:50:37;13.44;91.86
70166;SHT30;57541;47.408;18.822;2023-06-14T00:51:09;13.38;91.89
70166;SHT30;57541;47.408;18.822;2023-06-14T00:51:42;13.35;91.92
70166;SHT30;57541;47.408;18.822;2023-06-14T00:52:15;13.34;92.02
70166;SHT30;57541;47.408;18.822;2023-06-14T00:52:47;13.33;92.53
70166;SHT30;57541;47.408;18.822;2023-06-14T00:53:20;13.26;92.90
70166;SHT30;57541;47.408;18.822;2023-06-14T00:53:55;13.23;94.05
70166;SHT30;57541;47.408;18.822;2023-06-14T00:54:26;13.24;93.06
70166;SHT30;57541;47.408;18.822;2023-06-14T00:54:58;13.26;92.42
70166;SHT30;57541;47.408;18.822;2023-06-14T00:55:30;13.20;92.58
70166;SHT30;57541;47.408;18.822;2023-06-14T00:56:02;13.21;92.52
70166;SHT30;57541;47.408;18.822;2023-06-14T00:56:37;13.23;92.69
70166;SHT30;57541;47.408;18.822;2023-06-14T00:57:10;13.26;92.52
70166;SHT30;57541;47.408;18.822;2023-06-14T00:57:42;13.23;92.66
70166;SHT30;57541;47.408;18.822;2023-06-14T00:58:14;13.24;92.65
70166;SHT30;57541;47.408;18.822;2023-06-14T00:58:46;13.20;93.00
70166;SHT30;57541;47.408;18.822;2023-06-14T00:59:18;13.18;93.37
70166;SHT30;57541;47.408;18.822;2023-06-14T00:59:50;13.18;93.12
70166;SHT30;57541;47.408;18.822;2023-06-14T01:00:22;13.18;93.35
70166;SHT30;57541;47.408;18.822;2023-06-14T01:00:54;13.14;93.67
70166;SHT30;57541;47.408;18.822;2023-06-14T01:01:26;13.16;93.50
70166;SHT30;57541;47.408;18.822;2023-06-14T01:01:57;13.13;93.65
70166;SHT30;57541;47.408;18.822;2023-06-14T01:02:29;13.08;93.47
70166;SHT30;57541;47.408;18.822;2023-06-14T01:03:01;13.07;93.65
70166;SHT30;57541;47.408;18.822;2023-06-14T01:03:34;13.02;93.67
70166;SHT30;57541;47.408;18.822;2023-06-14T01:04:06;13.03;93.70
70166;SHT30;57541;47.408;18.822;2023-06-14T01:04:39;12.97;93.76
70166;SHT30;57541;47.408;18.822;2023-06-14T01:05:17;13.04;93.87
70166;SHT30;57541;47.408;18.822;2023-06-14T01:05:58;13.04;93.92
70166;SHT30;57541;47.408;18.822;2023-06-14T01:08:28;13.03;94.62
70166;SHT30;57541;47.408;18.822;2023-06-14T01:09:16;12.97;94.68
70166;SHT30;57541;47.408;18.822;2023-06-14T01:11:09;12.79;94.76
70166;SHT30;57541;47.408;18.822;2023-06-14T01:11:57;12.75;95.26
70166;SHT30;57541;47.408;18.822;2023-06-14T01:13:42;12.75;94.66
70166;SHT30;57541;47.408;18.822;2023-06-14T01:14:15;12.70;94.82
70166;SHT30;57541;47.408;18.822;2023-06-14T01:14:48;12.73;95.07
70166;SHT30;57541;47.408;18.822;2023-06-14T01:15:21;12.62;95.71
70166;SHT30;57541;47.408;18.822;2023-06-14T01:15:53;12.62;96.04
70166;SHT30;57541;47.408;18.822;2023-06-14T01:16:26;12.58;95.97
70166;SHT30;57541;47.408;18.822;2023-06-14T01:16:58;12.59;95.73
70166;SHT30;57541;47.408;18.822;2023-06-14T01:17:32;12.55;96.11
70166;SHT30;57541;47.408;18.822;2023-06-14T01:18:05;12.58;96.00
70166;SHT30;57541;47.408;18.822;2023-06-14T01:18:37;12.55;95.86
70166;SHT30;57541;47.408;18.822;2023-06-14T01:19:11;12.56;95.84
70166;SHT30;57541;47.408;18.822;2023-06-14T01:19:45;12.56;95.61
70166;SHT30;57541;47.408;18.822;2023-06-14T01:20:19;12.59;95.48
70166;SHT30;57541;47.408;18.822;2023-06-14T01:20:52;12.62;95.56
70166;SHT30;57541;47.408;18.822;2023-06-14T01:21:25;12.62;95.73
70166;SHT30;57541;47.408;18.822;2023-06-14T01:22:01;12.66;95.34
70166;SHT30;57541;47.408;18.822;2023-06-14T01:22:33;12.66;95.30
70166;SHT30;57541;47.408;18.822;2023-06-14T01:23:05;12.59;95.34
70166;SHT30;57541;47.408;18.822;2023-06-14T01:23:37;12.59;95.41
70166;SHT30;57541;47.408;18.822;2023-06-14T01:24:09;12.59;95.37
70166;SHT30;57541;47.408;18.822;2023-06-14T01:24:42;12.60;95.37
70166;SHT30;57541;47.408;18.822;2023-06-14T01:25:16;12.53;95.93
70166;SHT30;57541;47.408;18.822;2023-06-14T01:25:49;12.49;95.54
70166;SHT30;57541;47.408;18.822;2023-06-14T01:26:24;12.44;95.41
70166;SHT30;57541;47.408;18.822;2023-06-14T01:26:59;12.41;95.58
70166;SHT30;57541;47.408;18.822;2023-06-14T01:27:31;12.41;95.84
70166;SHT30;57541;47.408;18.822;2023-06-14T01:28:06;12.35;95.98
70166;SHT30;57541;47.408;18.822;2023-06-14T01:28:42;12.34;96.22
70166;SHT30;57541;47.408;18.822;2023-06-14T01:29:18;12.31;96.33
70166;SHT30;57541;47.408;18.822;2023-06-14T01:29:53;12.31;96.56
70166;SHT30;57541;47.408;18.822;2023-06-14T01:30:29;12.35;96.26
70166;SHT30;57541;47.408;18.822;2023-06-14T01:31:02;12.35;96.30
70166;SHT30;57541;47.408;18.822;2023-06-14T01:31:36;12.38;96.30
70166;SHT30;57541;47.408;18.822;2023-06-14T01:32:13;12.39;96.49
70166;SHT30;57541;47.408;18.822;2023-06-14T01:32:45;12.44;96.49
70166;SHT30;57541;47.408;18.822;2023-06-14T01:33:19;12.41;96.43
70166;SHT30;57541;47.408;18.822;2023-06-14T01:33:52;12.35;96.56
70166;SHT30;57541;47.408;18.822;2023-06-14T01:34:24;12.37;96.49
70166;SHT30;57541;47.408;18.822;2023-06-14T01:34:56;12.35;96.38
70166;SHT30;57541;47.408;18.822;2023-06-14T01:35:27;12.44;96.43
70166;SHT30;57541;47.408;18.822;2023-06-14T01:35:59;12.45;96.25
70166;SHT30;57541;47.408;18.822;2023-06-14T01:36:32;12.50;96.96
70166;SHT30;57541;47.408;18.822;2023-06-14T01:37:03;12.49;96.80
70166;SHT30;57541;47.408;18.822;2023-06-14T01:37:35;12.49;96.95
70166;SHT30;57541;47.408;18.822;2023-06-14T01:38:08;12.45;96.61
70166;SHT30;57541;47.408;18.822;2023-06-14T01:38:41;12.38;96.58
70166;SHT30;57541;47.408;18.822;2023-06-14T01:39:14;12.37;96.79
70166;SHT30;57541;47.408;18.822;2023-06-14T01:39:48;12.34;97.22
70166;SHT30;57541;47.408;18.822;2023-06-14T01:40:21;12.39;97.09
70166;SHT30;57541;47.408;18.822;2023-06-14T01:40:55;12.35;97.02
70166;SHT30;57541;47.408;18.822;2023-06-14T01:41:29;12.34;96.78
70166;SHT30;57541;47.408;18.822;2023-06-14T01:42:01;12.37;96.75
70166;SHT30;57541;47.408;18.822;2023-06-14T01:42:37;12.25;97.09
70166;SHT30;57541;47.408;18.822;2023-06-14T01:43:10;12.25;97.10
70166;SHT30;57541;47.408;18.822;2023-06-14T01:43:43;12.29;97.05
70166;SHT30;57541;47.408;18.822;2023-06-14T01:44:17;12.32;97.63
70166;SHT30;57541;47.408;18.822;2023-06-14T01:44:50;12.38;97.34
70166;SHT30;57541;47.408;18.822;2023-06-14T01:45:23;12.32;97.49
70166;SHT30;57541;47.408;18.822;2023-06-14T01:45:57;12.32;97.52
70166;SHT30;57541;47.408;18.822;2023-06-14T01:46:28;12.27;97.54
70166;SHT30;57541;47.408;18.822;2023-06-14T01:47:00;12.31;97.44
70166;SHT30;57541;47.408;18.822;2023-06-14T01:47:33;12.35;97.29
70166;SHT30;57541;47.408;18.822;2023-06-14T01:48:06;12.35;97.31
70166;SHT30;57541;47.408;18.822;2023-06-14T01:48:38;12.31;97.24
70166;SHT30;57541;47.408;18.822;2023-06-14T01:49:10;12.38;97.53
70166;SHT30;57541;47.408;18.822;2023-06-14T01:49:42;12.34;97.77
70166;SHT30;57541;47.408;18.822;2023-06-14T01:50:14;12.35;97.58
70166;SHT30;57541;47.408;18.822;2023-06-14T01:50:48;12.32;97.36
70166;SHT30;57541;47.408;18.822;2023-06-14T01:51:20;12.32;97.53
70166;SHT30;57541;47.408;18.822;2023-06-14T01:51:51;12.37;97.68
70166;SHT30;57541;47.408;18.822;2023-06-14T01:52:23;12.39;97.68
70166;SHT30;57541;47.408;18.822;2023-06-14T01:52:55;12.39;97.41
70166;SHT30;57541;47.408;18.822;2023-06-14T01:53:27;12.35;97.38
70166;SHT30;57541;47.408;18.822;2023-06-14T01:53:59;12.32;97.47
70166;SHT30;57541;47.408;18.822;2023-06-14T01:54:31;12.32;97.52
70166;SHT30;57541;47.408;18.822;2023-06-14T01:55:06;12.29;97.74
70166;SHT30;57541;47.408;18.822;2023-06-14T01:55:39;12.31;97.84
70166;SHT30;57541;47.408;18.822;2023-06-14T01:56:14;12.25;97.98
70166;SHT30;57541;47.408;18.822;2023-06-14T01:56:46;12.29;98.10
70166;SHT30;57541;47.408;18.822;2023-06-14T01:57:18;12.31;98.03
70166;SHT30;57541;47.408;18.822;2023-06-14T01:57:51;12.35;98.03
70166;SHT30;57541;47.408;18.822;2023-06-14T01:58:23;12.32;97.99
70166;SHT30;57541;47.408;18.822;2023-06-14T01:58:55;12.31;98.18
70166;SHT30;57541;47.408;18.822;2023-06-14T01:59:27;12.27;98.34
70166;SHT30;57541;47.408;18.822;2023-06-14T01:59:59;12.34;98.34
70166;SHT30;57541;47.408;18.822;2023-06-14T02:00:31;12.35;98.40
70166;SHT30;57541;47.408;18.822;2023-06-14T02:01:02;12.27;98.37
70166;SHT30;57541;47.408;18.822;2023-06-14T02:01:34;12.31;98.30
70166;SHT30;57541;47.408;18.822;2023-06-14T02:02:06;12.31;98.33
70166;SHT30;57541;47.408;18.822;2023-06-14T02:02:38;12.34;98.31
70166;SHT30;57541;47.408;18.822;2023-06-14T02:03:11;12.37;98.36
70166;SHT30;57541;47.408;18.822;2023-06-14T02:03:43;12.29;98.68
70166;SHT30;57541;47.408;18.822;2023-06-14T02:04:16;12.37;98.56
70166;SHT30;57541;47.408;18.822;2023-06-14T02:04:47;12.41;98.44
70166;SHT30;57541;47.408;18.822;2023-06-14T02:05:19;12.39;98.41
70166;SHT30;57541;47.408;18.822;2023-06-14T02:05:51;12.39;98.64
70166;SHT30;57541;47.408;18.822;2023-06-14T02:06:24;12.39;98.48
70166;SHT30;57541;47.408;18.822;2023-06-14T02:06:55;12.42;98.36
70166;SHT30;57541;47.408;18.822;2023-06-14T02:07:27;12.37;98.58
70166;SHT30;57541;47.408;18.822;2023-06-14T02:07:59;12.38;98.80
70166;SHT30;57541;47.408;18.822;2023-06-14T02:08:30;12.37;98.57
70166;SHT30;57541;47.408;18.822;2023-06-14T02:09:02;12.42;98.56
70166;SHT30;57541;47.408;18.822;2023-06-14T02:09:34;12.48;98.36
70166;SHT30;57541;47.408;18.822;2023-06-14T02:10:07;12.44;98.35
70166;SHT30;57541;47.408;18.822;2023-06-14T02:10:38;12.42;98.19
70166;SHT30;57541;47.408;18.822;2023-06-14T02:11:10;12.44;98.33
70166;SHT30;57541;47.408;18.822;2023-06-14T02:11:42;12.44;98.48
70166;SHT30;57541;47.408;18.822;2023-06-14T02:12:13;12.45;98.38
70166;SHT30;57541;47.408;18.822;2023-06-14T02:12:45;12.46;98.39
70166;SHT30;57541;47.408;18.822;2023-06-14T02:13:17;12.44;98.71
70166;SHT30;57541;47.408;18.822;2023-06-14T02:13:49;12.39;99.03
70166;SHT30;57541;47.408;18.822;2023-06-14T02:14:20;12.41;98.91
70166;SHT30;57541;47.408;18.822;2023-06-14T02:14:52;12.42;98.89
70166;SHT30;57541;47.408;18.822;2023-06-14T02:15:24;12.41;98.99
70166;SHT30;57541;47.408;18.822;2023-06-14T02:15:55;12.38;99.23
70166;SHT30;57541;47.408;18.822;2023-06-14T02:16:27;12.38;99.06
70166;SHT30;57541;47.408;18.822;2023-06-14T02:17:01;12.39;99.10
70166;SHT30;57541;47.408;18.822;2023-06-14T02:17:33;12.34;98.89
70166;SHT30;57541;47.408;18.822;2023-06-14T02:18:06;12.29;99.17
70166;SHT30;57541;47.408;18.822;2023-06-14T02:18:37;12.28;99.35
70166;SHT30;57541;47.408;18.822;2023-06-14T02:19:09;12.25;99.47
70166;SHT30;57541;47.408;18.822;2023-06-14T02:19:41;12.32;99.29
70166;SHT30;57541;47.408;18.822;2023-06-14T02:20:13;12.25;99.17
70166;SHT30;57541;47.408;18.822;2023-06-14T02:20:46;12.28;99.16
70166;SHT30;57541;47.408;18.822;2023-06-14T02:21:18;12.27;99.20
70166;SHT30;57541;47.408;18.822;2023-06-14T02:21:50;12.27;99.09
70166;SHT30;57541;47.408;18.822;2023-06-14T02:22:22;12.18;99.13
70166;SHT30;57541;47.408;18.822;2023-06-14T02:22:54;12.25;99.28
70166;SHT30;57541;47.408;18.822;2023-06-14T02:23:25;12.24;99.21
70166;SHT30;57541;47.408;18.822;2023-06-14T02:23:57;12.29;99.17
70166;SHT30;57541;47.408;18.822;2023-06-14T02:24:30;12.28;99.43
70166;SHT30;57541;47.408;18.822;2023-06-14T02:25:02;12.28;99.48
70166;SHT30;57541;47.408;18.822;2023-06-14T02:25:34;12.29;99.37
70166;SHT30;57541;47.408;18.822;2023-06-14T02:26:06;12.29;99.26
70166;SHT30;57541;47.408;18.822;2023-06-14T02:26:38;12.24;99.00
70166;SHT30;57541;47.408;18.822;2023-06-14T02:27:10;12.21;99.02
70166;SHT30;57541;47.408;18.822;2023-06-14T02:27:42;12.21;99.55
70166;SHT30;57541;47.408;18.822;2023-06-14T02:28:13;12.22;99.53
70166;SHT30;57541;47.408;18.822;2023-06-14T02:28:45;12.18;99.54
70166;SHT30;57541;47.408;18.822;2023-06-14T02:29:17;12.20;99.36
70166;SHT30;57541;47.408;18.822;2023-06-14T02:29:48;12.18;99.47
70166;SHT30;57541;47.408;18.822;2023-06-14T02:30:20;12.28;99.97
70166;SHT30;57541;47.408;18.822;2023-06-14T02:30:52;12.35;99.99
70166;SHT30;57541;47.408;18.822;2023-06-14T02:31:24;12.37;99.99
70166;SHT30;57541;47.408;18.822;2023-06-14T02:31:56;12.29;99.45
70166;SHT30;57541;47.408;18.822;2023-06-14T02:32:28;12.29;99.56
70166;SHT30;57541;47.408;18.822;2023-06-14T02:33:00;12.27;99.27
70166;SHT30;57541;47.408;18.822;2023-06-14T02:33:32;12.28;99.64
70166;SHT30;57541;47.408;18.822;2023-06-14T02:34:04;12.32;99.79
70166;SHT30;57541;47.408;18.822;2023-06-14T02:34:36;12.35;99.86
70166;SHT30;57541;47.408;18.822;2023-06-14T02:35:08;12.32;99.99
70166;SHT30;57541;47.408;18.822;2023-06-14T02:35:40;12.49;99.99
70166;SHT30;57541;47.408;18.822;2023-06-14T02:36:12;12.56;99.99
70166;SHT30;57541;47.408;18.822;2023-06-14T02:36:44;12.62;99.99
70166;SHT30;57541;47.408;18.822;2023-06-14T02:37:16;12.63;99.80
70166;SHT30;57541;47.408;18.822;2023-06-14T02:37:48;12.56;99.36
70166;SHT30;57541;47.408;18.822;2023-06-14T02:38:19;12.58;99.46
70166;SHT30;57541;47.408;18.822;2023-06-14T02:38:51;12.58;99.50
70166;SHT30;57541;47.408;18.822;2023-06-14T02:39:25;12.56;99.64
70166;SHT30;57541;47.408;18.822;2023-06-14T02:39:57;12.53;99.42
70166;SHT30;57541;47.408;18.822;2023-06-14T02:40:28;12.50;99.50
70166;SHT30;57541;47.408;18.822;2023-06-14T02:41:00;12.46;99.33
70166;SHT30;57541;47.408;18.822;2023-06-14T02:41:33;12.44;99.15
70166;SHT30;57541;47.408;18.822;2023-06-14T02:42:05;12.42;99.73
70166;SHT30;57541;47.408;18.822;2023-06-14T02:42:37;12.46;99.98
70166;SHT30;57541;47.408;18.822;2023-06-14T02:43:09;12.48;99.99
70166;SHT30;57541;47.408;18.822;2023-06-14T02:43:41;12.49;99.97
70166;SHT30;57541;47.408;18.822;2023-06-14T02:44:13;12.50;99.86
70166;SHT30;57541;47.408;18.822;2023-06-14T02:44:45;12.58;99.99
70166;SHT30;57541;47.408;18.822;2023-06-14T02:45:18;12.62;99.99
70166;SHT30;57541;47.408;18.822;2023-06-14T02:45:49;12.65;99.99
70166;SHT30;57541;47.408;18.822;2023-06-14T02:46:22;12.69;99.98
70166;SHT30;57541;47.408;18.822;2023-06-14T02:46:54;12.73;99.96
70166;SHT30;57541;47.408;18.822;2023-06-14T02:47:26;12.77;99.92
70166;SHT30;57541;47.408;18.822;2023-06-14T02:47:58;12.83;99.67
70166;SHT30;57541;47.408;18.822;2023-06-14T02:48:30;12.83;99.64
70166;SHT30;57541;47.408;18.822;2023-06-14T02:49:02;12.85;99.63
70166;SHT30;57541;47.408;18.822;2023-06-14T02:49:33;12.85;99.58
70166;SHT30;57541;47.408;18.822;2023-06-14T02:50:06;12.86;99.55
70166;SHT30;57541;47.408;18.822;2023-06-14T02:50:38;12.90;99.53
70166;SHT30;57541;47.408;18.822;2023-06-14T02:51:10;12.93;99.44
70166;SHT30;57541;47.408;18.822;2023-06-14T02:51:42;12.95;99.41
70166;SHT30;57541;47.408;18.822;2023-06-14T02:52:14;12.90;99.46
70166;SHT30;57541;47.408;18.822;2023-06-14T02:52:46;12.92;99.51
70166;SHT30;57541;47.408;18.822;2023-06-14T02:53:18;12.92;99.57
70166;SHT30;57541;47.408;18.822;2023-06-14T02:53:50;12.96;99.47
70166;SHT30;57541;47.408;18.822;2023-06-14T02:54:22;12.95;99.38
70166;SHT30;57541;47.408;18.822;2023-06-14T02:54:54;12.96;99.39
70166;SHT30;57541;47.408;18.822;2023-06-14T02:55:26;12.97;99.32
70166;SHT30;57541;47.408;18.822;2023-06-14T02:55:57;12.99;99.35
70166;SHT30;57541;47.408;18.822;2023-06-14T02:56:29;12.96;99.37
70166;SHT30;57541;47.408;18.822;2023-06-14T02:57:01;12.97;99.31
70166;SHT30;57541;47.408;18.822;2023-06-14T02:57:33;12.99;99.29
70166;SHT30;57541;47.408;18.822;2023-06-14T02:58:05;12.99;99.32
70166;SHT30;57541;47.408;18.822;2023-06-14T02:58:38;12.99;99.30
70166;SHT30;57541;47.408;18.822;2023-06-14T02:59:10;13.02;99.31
70166;SHT30;57541;47.408;18.822;2023-06-14T02:59:42;13.02;99.27
70166;SHT30;57541;47.408;18.822;2023-06-14T03:00:14;13.03;99.21
70166;SHT30;57541;47.408;18.822;2023-06-14T03:00:46;13.07;99.14
70166;SHT30;57541;47.408;18.822;2023-06-14T03:01:18;13.07;99.11
70166;SHT30;57541;47.408;18.822;2023-06-14T03:01:50;13.07;99.12
70166;SHT30;57541;47.408;18.822;2023-06-14T03:02:22;13.07;99.14
70166;SHT30;57541;47.408;18.822;2023-06-14T03:02:54;13.04;99.21
70166;SHT30;57541;47.408;18.822;2023-06-14T03:03:26;13.06;99.20
70166;SHT30;57541;47.408;18.822;2023-06-14T03:03:58;13.08;99.11
70166;SHT30;57541;47.408;18.822;2023-06-14T03:04:30;13.08;99.19
70166;SHT30;57541;47.408;18.822;2023-06-14T03:05:06;13.07;99.11
70166;SHT30;57541;47.408;18.822;2023-06-14T03:05:40;13.06;99.15
70166;SHT30;57541;47.408;18.822;2023-06-14T03:06:12;13.07;99.11
70166;SHT30;57541;47.408;18.822;2023-06-14T03:06:45;13.07;99.11
70166;SHT30;57541;47.408;18.822;2023-06-14T03:07:21;13.08;99.13
70166;SHT30;57541;47.408;18.822;2023-06-14T03:07:54;13.08;99.15
70166;SHT30;57541;47.408;18.822;2023-06-14T03:08:26;13.10;99.23
70166;SHT30;57541;47.408;18.822;2023-06-14T03:09:00;13.11;99.15
70166;SHT30;57541;47.408;18.822;2023-06-14T03:09:36;13.08;99.07
70166;SHT30;57541;47.408;18.822;2023-06-14T03:10:09;13.08;99.09
70166;SHT30;57541;47.408;18.822;2023-06-14T03:10:41;13.10;99.10
70166;SHT30;57541;47.408;18.822;2023-06-14T03:11:12;13.07;99.18
70166;SHT30;57541;47.408;18.822;2023-06-14T03:11:44;13.10;99.17
70166;SHT30;57541;47.408;18.822;2023-06-14T03:12:16;13.06;99.24
70166;SHT30;57541;47.408;18.822;2023-06-14T03:12:47;13.06;99.27
70166;SHT30;57541;47.408;18.822;2023-06-14T03:13:19;13.07;99.33
70166;SHT30;57541;47.408;18.822;2023-06-14T03:13:54;13.11;99.27
70166;SHT30;57541;47.408;18.822;2023-06-14T03:14:26;13.10;99.22
70166;SHT30;57541;47.408;18.822;2023-06-14T03:14:58;13.11;99.22
70166;SHT30;57541;47.408;18.822;2023-06-14T03:15:33;13.11;99.17
70166;SHT30;57541;47.408;18.822;2023-06-14T03:16:05;13.13;99.16
70166;SHT30;57541;47.408;18.822;2023-06-14T03:16:37;13.10;99.21
70166;SHT30;57541;47.408;18.822;2023-06-14T03:17:09;13.10;99.30
70166;SHT30;57541;47.408;18.822;2023-06-14T03:17:41;13.14;99.21
70166;SHT30;57541;47.408;18.822;2023-06-14T03:18:17;13.13;99.17
70166;SHT30;57541;47.408;18.822;2023-06-14T03:18:50;13.11;99.20
70166;SHT30;57541;47.408;18.822;2023-06-14T03:19:23;13.11;99.22
70166;SHT30;57541;47.408;18.822;2023-06-14T03:19:54;13.17;99.13
70166;SHT30;57541;47.408;18.822;2023-06-14T03:20:26;13.16;99.13
70166;SHT30;57541;47.408;18.822;2023-06-14T03:21:01;13.17;99.06
70166;SHT30;57541;47.408;18.822;2023-06-14T03:21:32;13.14;99.09
70166;SHT30;57541;47.408;18.822;2023-06-14T03:22:06;13.20;99.04
70166;SHT30;57541;47.408;18.822;2023-06-14T03:22:38;13.24;98.95
70166;SHT30;57541;47.408;18.822;2023-06-14T03:23:11;13.26;98.88
70166;SHT30;57541;47.408;18.822;2023-06-14T03:23:43;13.26;98.79
70166;SHT30;57541;47.408;18.822;2023-06-14T03:24:16;13.24;98.89
70166;SHT30;57541;47.408;18.822;2023-06-14T03:24:51;13.31;98.77
70166;SHT30;57541;47.408;18.822;2023-06-14T03:25:23;13.34;98.71
70166;SHT30;57541;47.408;18.822;2023-06-14T03:25:55;13.34;98.76
70166;SHT30;57541;47.408;18.822;2023-06-14T03:26:27;13.33;98.60